地図

経路データ

SID SEASON NUMBER BASIN SUBBASIN NAME ISO_TIME NATURE LAT LON WMO_WIND WMO_PRES WMO_AGENCY TRACK_TYPE DIST2LAND LANDFALL IFLAG USA_AGENCY USA_ATCF_ID USA_LAT USA_LON USA_RECORD USA_STATUS USA_WIND USA_PRES USA_SSHS USA_R34_NE USA_R34_SE USA_R34_SW USA_R34_NW USA_R50_NE USA_R50_SE USA_R50_SW USA_R50_NW USA_R64_NE USA_R64_SE USA_R64_SW USA_R64_NW USA_POCI USA_ROCI USA_RMW USA_EYE TOKYO_LAT TOKYO_LON TOKYO_GRADE TOKYO_WIND TOKYO_PRES TOKYO_R50_DIR TOKYO_R50_LONG TOKYO_R50_SHORT TOKYO_R30_DIR TOKYO_R30_LONG TOKYO_R30_SHORT TOKYO_LAND CMA_LAT CMA_LON CMA_CAT CMA_WIND CMA_PRES HKO_LAT HKO_LON HKO_CAT HKO_WIND HKO_PRES NEWDELHI_LAT NEWDELHI_LON NEWDELHI_GRADE NEWDELHI_WIND NEWDELHI_PRES NEWDELHI_CI NEWDELHI_DP NEWDELHI_POCI REUNION_LAT REUNION_LON REUNION_TYPE REUNION_WIND REUNION_PRES REUNION_TNUM REUNION_CI REUNION_RMW REUNION_R34_NE REUNION_R34_SE REUNION_R34_SW REUNION_R34_NW REUNION_R50_NE REUNION_R50_SE REUNION_R50_SW REUNION_R50_NW REUNION_R64_NE REUNION_R64_SE REUNION_R64_SW REUNION_R64_NW BOM_LAT BOM_LON BOM_TYPE BOM_WIND BOM_PRES BOM_TNUM BOM_CI BOM_RMW BOM_R34_NE BOM_R34_SE BOM_R34_SW BOM_R34_NW BOM_R50_NE BOM_R50_SE BOM_R50_SW BOM_R50_NW BOM_R64_NE BOM_R64_SE BOM_R64_SW BOM_R64_NW BOM_ROCI BOM_POCI BOM_EYE BOM_POS_METHOD BOM_PRES_METHOD NADI_LAT NADI_LON NADI_CAT NADI_WIND NADI_PRES WELLINGTON_LAT WELLINGTON_LON WELLINGTON_WIND WELLINGTON_PRES DS824_LAT DS824_LON DS824_STAGE DS824_WIND DS824_PRES TD9636_LAT TD9636_LON TD9636_STAGE TD9636_WIND TD9636_PRES TD9635_LAT TD9635_LON TD9635_WIND TD9635_PRES TD9635_ROCI NEUMANN_LAT NEUMANN_LON NEUMANN_CLASS NEUMANN_WIND NEUMANN_PRES MLC_LAT MLC_LON MLC_CLASS MLC_WIND MLC_PRES USA_GUST BOM_GUST BOM_GUST_PER REUNION_GUST REUNION_GUST_PER USA_SEAHGT USA_SEARAD_NE USA_SEARAD_SE USA_SEARAD_SW USA_SEARAD_NW STORM_SPEED STORM_DIR
1888166N20119 1888 21 WP MM NOT_NAMED 1888-06-13 16:00:00 NR 20.0000 119.400 main 214 214 __________O___ -1 20.0000 119.400 7 2 275
1888166N20119 1888 21 WP MM NOT_NAMED 1888-06-13 18:00:00 NR 20.0070 119.312 main 222 222 __________P___ -1 20.0070 119.312 7 3 276
1888166N20119 1888 21 WP MM NOT_NAMED 1888-06-13 21:00:00 NR 20.0210 119.175 main 229 229 __________P___ -1 20.0210 119.175 7 3 278
1888166N20119 1888 21 WP MM NOT_NAMED 1888-06-14 00:00:00 NR 20.0445 119.027 main 245 245 __________P___ -1 20.0445 119.027 7 3 282
1888166N20119 1888 21 WP MM NOT_NAMED 1888-06-14 03:00:00 NR 20.0829 118.861 main 260 260 __________P___ -1 20.0829 118.861 7 3 285
1888166N20119 1888 21 WP MM NOT_NAMED 1888-06-14 04:00:00 NR 20.1000 118.800 main 268 268 __________O___ -1 20.1000 118.800 7 4 288
1888166N20119 1888 21 WP MM NOT_NAMED 1888-06-14 06:00:00 NR 20.1412 118.670 main 275 275 __________P___ -1 20.1412 118.670 7 4 290
1888166N20119 1888 21 WP MM NOT_NAMED 1888-06-14 09:00:00 NR 20.2157 118.456 main 297 298 __________P___ -1 20.2157 118.456 7 4 290
1888166N20119 1888 21 WP MM NOT_NAMED 1888-06-14 12:00:00 NR 20.2970 118.224 main 315 315 __________P___ -1 20.2970 118.224 7 5 290
1888166N20119 1888 21 WP MM NOT_NAMED 1888-06-14 15:00:00 NR 20.3759 117.982 main 319 314 __________P___ -1 20.3759 117.982 7 5 289
1888166N20119 1888 21 WP MM NOT_NAMED 1888-06-14 16:00:00 NR 20.4000 117.900 main 314 305 __________O___ -1 20.4000 117.900 7 5 284
1888166N20119 1888 21 WP MM NOT_NAMED 1888-06-14 18:00:00 NR 20.4365 117.728 main 305 287 __________P___ -1 20.4365 117.728 7 5 282
1888166N20119 1888 21 WP MM NOT_NAMED 1888-06-14 21:00:00 NR 20.4848 117.465 main 287 277 __________P___ -1 20.4848 117.465 7 5 281
1888166N20119 1888 21 WP MM NOT_NAMED 1888-06-15 00:00:00 NR 20.5310 117.207 main 277 262 __________P___ -1 20.5310 117.207 7 5 282
1888166N20119 1888 21 WP MM NOT_NAMED 1888-06-15 03:00:00 NR 20.5812 116.971 main 262 259 __________P___ -1 20.5812 116.971 7 4 283
1888166N20119 1888 21 WP MM NOT_NAMED 1888-06-15 04:00:00 NR 20.6000 116.900 main 259 256 __________O___ -1 20.6000 116.900 3 4 288
1888166N20119 1888 21 WP MM NOT_NAMED 1888-06-15 06:00:00 NR 20.6389 116.780 main 256 238 __________P___ -1 20.6389 116.780 3 3 292
1888166N20119 1888 21 WP MM NOT_NAMED 1888-06-15 09:00:00 NR 20.7035 116.625 main 238 224 __________P___ -1 20.7035 116.625 3 3 297
1888166N20119 1888 21 WP MM NOT_NAMED 1888-06-15 12:00:00 NR 20.7785 116.486 main 224 207 __________P___ -1 20.7785 116.486 3 3 302
1888166N20119 1888 21 WP MM NOT_NAMED 1888-06-15 15:00:00 NR 20.8670 116.348 main 207 207 __________P___ -1 20.8670 116.348 3 3 305
1888166N20119 1888 21 WP MM NOT_NAMED 1888-06-15 16:00:00 NR 20.9000 116.300 main 207 194 __________O___ -1 20.9000 116.300 4 3 305
1888166N20119 1888 21 WP MM NOT_NAMED 1888-06-15 18:00:00 NR 20.9666 116.197 main 194 180 __________P___ -1 20.9666 116.197 4 4 306
1888166N20119 1888 21 WP MM NOT_NAMED 1888-06-15 21:00:00 NR 21.0790 116.036 main 180 168 __________P___ -1 21.0790 116.036 4 4 308
1888166N20119 1888 21 WP MM NOT_NAMED 1888-06-16 00:00:00 NR 21.2065 115.862 main 168 156 __________P___ -1 21.2065 115.862 4 4 308
1888166N20119 1888 21 WP MM NOT_NAMED 1888-06-16 03:00:00 NR 21.3491 115.670 main 156 142 __________P___ -1 21.3491 115.670 4 5 308
1888166N20119 1888 21 WP MM NOT_NAMED 1888-06-16 04:00:00 NR 21.4000 115.600 main 142 127 __________O___ -1 21.4000 115.600 4 5 305
1888166N20119 1888 21 WP MM NOT_NAMED 1888-06-16 06:00:00 NR 21.4922 115.450 main 127 105 __________P___ -1 21.4922 115.450 4 5 304
1888166N20119 1888 21 WP MM NOT_NAMED 1888-06-16 09:00:00 NR 21.6427 115.207 main 105 78 __________P___ -1 21.6427 115.207 4 6 305
1888166N20119 1888 21 WP MM NOT_NAMED 1888-06-16 12:00:00 NR 21.8163 114.949 main 78 53 __________P___ -1 21.8163 114.949 4 6 308
1888166N20119 1888 21 WP MM NOT_NAMED 1888-06-16 15:00:00 NR 22.0224 114.687 main 53 38 __________P___ -1 22.0224 114.687 4 6 311
1888166N20119 1888 21 WP MM NOT_NAMED 1888-06-16 16:00:00 NR 22.1000 114.600 main 38 10 __________O___ -1 22.1000 114.600 4 7 316
1888166N20119 1888 21 WP MM NOT_NAMED 1888-06-16 18:00:00 NR 22.2695 114.429 main 10 0 __________P___ -1 22.2695 114.429 4 7 319
1888166N20119 1888 21 WP MM NOT_NAMED 1888-06-16 21:00:00 NR 22.5540 114.177 main 0 0 __________P___ -1 22.5540 114.177 4 8 322
1888166N20119 1888 21 WP MM NOT_NAMED 1888-06-17 00:00:00 NR 22.8647 113.929 main 0 0 __________P___ -1 22.8647 113.929 4 8 324
1888166N20119 1888 21 WP MM NOT_NAMED 1888-06-17 03:00:00 NR 23.1902 113.682 main 0 0 __________P___ -1 23.1902 113.682 4 8 325
1888166N20119 1888 21 WP MM NOT_NAMED 1888-06-17 04:00:00 NR 23.3000 113.600 main 0 __________O___ -1 23.3000 113.600 4 8 323

デジタル台風データ・検索

IBTrACS Databaseについて

本データベースは、米国NOAAが公開する1842年以降の世界の熱帯低気圧のベストトラックデータアーカイブInternational Best Track Archive for Climate Stewardship (IBTrACS)を、ウェブで閲覧しやすい形式に変換したものです。

最終更新日:2021-10-27